createdAt,value
2023-04-25T00:02:01.004Z,4.40
2023-04-25T00:04:07.748Z,4.50
2023-04-25T00:06:12.994Z,4.38
2023-04-25T00:08:20.727Z,4.38
2023-04-25T00:10:26.138Z,4.82
2023-04-25T00:12:31.270Z,5.80
2023-04-25T00:14:39.276Z,4.35
2023-04-25T00:16:45.426Z,5.32
2023-04-25T00:18:52.649Z,5.22
2023-04-25T00:20:57.920Z,4.60
2023-04-25T00:23:03.018Z,5.07
2023-04-25T00:25:11.715Z,4.47
2023-04-25T00:27:18.308Z,4.75
2023-04-25T00:29:23.324Z,4.63
2023-04-25T00:31:28.698Z,7.85
2023-04-25T00:33:33.620Z,6.65
2023-04-25T00:35:38.883Z,5.07
2023-04-25T00:37:43.959Z,4.65
2023-04-25T00:39:48.970Z,3.95
2023-04-25T00:41:58.123Z,4.32
2023-04-25T00:44:05.396Z,4.93
2023-04-25T00:46:10.353Z,4.13
2023-04-25T00:48:20.880Z,4.68
2023-04-25T00:50:33.998Z,4.20
2023-04-25T00:52:51.026Z,4.00
2023-04-25T00:55:02.124Z,4.50
2023-04-25T00:57:13.297Z,4.18
2023-04-25T00:59:29.729Z,4.97
2023-04-25T01:01:38.822Z,3.72
2023-04-25T01:03:44.913Z,4.10
2023-04-25T01:05:54.854Z,4.13
2023-04-25T01:08:04.538Z,4.53
2023-04-25T01:10:24.465Z,4.25
2023-04-25T01:12:39.196Z,5.35
2023-04-25T01:14:48.768Z,3.65
2023-04-25T01:17:02.215Z,4.68
2023-04-25T01:19:13.682Z,4.18
2023-04-25T01:21:32.208Z,3.55
2023-04-25T01:23:39.527Z,3.60
2023-04-25T01:25:44.846Z,3.80
2023-04-25T01:27:50.344Z,3.95
2023-04-25T01:29:55.720Z,4.03
2023-04-25T01:32:02.242Z,3.92
2023-04-25T01:34:07.366Z,4.80
2023-04-25T01:36:13.031Z,3.83
2023-04-25T01:38:20.592Z,6.05
2023-04-25T01:40:26.273Z,4.35
2023-04-25T01:42:31.543Z,3.92
2023-04-25T01:44:36.683Z,3.60
2023-04-25T01:46:41.730Z,3.28
2023-04-25T01:48:46.780Z,4.10
2023-04-25T01:50:52.555Z,3.95
2023-04-25T01:52:58.436Z,3.53
2023-04-25T01:55:07.084Z,3.72
2023-04-25T01:57:11.936Z,4.22
2023-04-25T01:59:16.891Z,3.88
2023-04-25T02:01:24.838Z,3.30
2023-04-25T02:03:31.197Z,3.60
2023-04-25T02:05:39.683Z,2.95
2023-04-25T02:07:44.629Z,3.97
2023-04-25T02:09:49.704Z,3.42
2023-04-25T02:11:57.246Z,4.18
2023-04-25T02:14:03.390Z,3.67
2023-04-25T02:16:09.423Z,3.70
2023-04-25T02:18:14.591Z,3.17
2023-04-25T02:20:21.113Z,4.15
2023-04-25T02:22:25.995Z,3.60
2023-04-25T02:24:31.253Z,2.78
2023-04-25T02:26:37.939Z,2.90
2023-04-25T02:28:45.676Z,3.53
2023-04-25T02:30:50.618Z,3.05
2023-04-25T02:32:55.676Z,2.92
2023-04-25T02:35:04.994Z,3.28
2023-04-25T02:37:09.920Z,2.63
2023-04-25T02:39:14.854Z,3.20
2023-04-25T02:41:19.860Z,3.67
2023-04-25T02:43:24.764Z,3.33
2023-04-25T02:45:32.207Z,2.75
2023-04-25T02:47:38.423Z,3.92
2023-04-25T02:49:43.430Z,2.78
2023-04-25T02:51:50.456Z,3.47
2023-04-25T02:53:56.288Z,2.78
2023-04-25T02:56:06.197Z,2.35
2023-04-25T02:58:14.918Z,3.15
2023-04-25T03:00:25.630Z,2.83
2023-04-25T03:02:36.919Z,3.85
2023-04-25T03:04:42.146Z,3.13
2023-04-25T03:06:47.631Z,3.35
2023-04-25T03:08:54.402Z,3.50
2023-04-25T03:10:59.703Z,3.05
2023-04-25T03:13:04.593Z,2.70
2023-04-25T03:15:12.043Z,2.70
2023-04-25T03:17:18.635Z,2.70
2023-04-25T03:19:26.628Z,3.38
2023-04-25T03:21:33.276Z,3.08
2023-04-25T03:23:39.924Z,3.28
2023-04-25T03:25:47.034Z,2.88
2023-04-25T03:27:54.214Z,2.75
2023-04-25T03:30:03.736Z,2.97
2023-04-25T03:32:09.658Z,2.45
2023-04-25T03:34:15.924Z,3.15
2023-04-25T03:36:25.931Z,3.28
2023-04-25T03:38:33.144Z,3.38
2023-04-25T03:40:38.720Z,3.58
2023-04-25T03:42:45.140Z,3.00
2023-04-25T03:44:51.178Z,3.47
2023-04-25T03:46:59.866Z,2.65
2023-04-25T03:49:06.806Z,3.17
2023-04-25T03:51:12.137Z,2.58
2023-04-25T03:53:24.952Z,3.10
2023-04-25T03:55:31.889Z,2.53
2023-04-25T03:57:39.869Z,3.22
2023-04-25T03:59:48.326Z,3.03
2023-04-25T04:01:55.326Z,3.33
2023-04-25T04:04:01.047Z,2.67
2023-04-25T04:06:13.102Z,2.75
2023-04-25T04:08:27.395Z,2.92
2023-04-25T04:10:36.906Z,3.85
2023-04-25T04:12:48.047Z,2.95
2023-04-25T04:14:55.326Z,3.20
2023-04-25T04:17:02.078Z,2.70
2023-04-25T04:19:13.656Z,3.60
2023-04-25T04:21:29.498Z,3.05
2023-04-25T04:23:40.021Z,2.60
2023-04-25T04:25:51.177Z,2.72
2023-04-25T04:28:15.323Z,2.83
2023-04-25T04:30:28.244Z,2.78
2023-04-25T04:32:41.179Z,2.75
2023-04-25T04:37:20.249Z,2.83
2023-04-25T04:39:31.718Z,3.90
2023-04-25T04:41:48.789Z,2.53
2023-04-25T04:44:02.469Z,3.15
2023-04-25T04:46:07.588Z,3.40
2023-04-25T04:48:15.468Z,2.15
2023-04-25T04:50:21.159Z,2.50
2023-04-25T04:52:26.072Z,2.60
2023-04-25T04:54:33.837Z,2.63
2023-04-25T04:56:38.596Z,3.17
2023-04-25T04:58:43.526Z,2.78
2023-04-25T05:00:50.278Z,2.72
2023-04-25T05:02:55.759Z,3.08
2023-04-25T05:05:00.797Z,2.75
2023-04-25T05:07:05.708Z,2.22
2023-04-25T05:09:10.536Z,2.53
2023-04-25T05:11:19.336Z,2.60
2023-04-25T05:13:24.550Z,3.85
2023-04-25T05:15:29.529Z,2.50
2023-04-25T05:17:34.411Z,2.85
2023-04-25T05:19:40.605Z,2.95
2023-04-25T05:21:45.646Z,3.25
2023-04-25T05:23:51.046Z,2.58
2023-04-25T05:25:56.283Z,2.55
2023-04-25T05:28:03.836Z,2.92
2023-04-25T05:30:10.276Z,2.95
2023-04-25T05:32:15.376Z,2.40
2023-04-25T05:34:22.801Z,3.10
2023-04-25T05:36:34.683Z,2.53
2023-04-25T05:38:50.159Z,3.22
2023-04-25T05:40:58.049Z,2.60
2023-04-25T05:43:05.792Z,2.20
2023-04-25T05:45:15.783Z,2.55
2023-04-25T05:47:29.739Z,2.45
2023-04-25T05:49:57.658Z,2.95
2023-04-25T05:55:11.574Z,2.10
2023-04-25T05:57:42.518Z,2.70
2023-04-25T06:05:30.994Z,1.92
2023-04-25T06:08:11.706Z,1.90
2023-04-25T06:10:20.423Z,1.90
2023-04-25T06:12:28.580Z,2.10
2023-04-25T06:14:53.905Z,1.83
2023-04-25T06:17:07.443Z,2.15
2023-04-25T06:19:35.035Z,2.22
2023-04-25T06:21:40.443Z,2.47
2023-04-25T06:23:45.475Z,2.35
2023-04-25T06:25:52.316Z,2.03
2023-04-25T06:27:57.275Z,2.00
2023-04-25T06:30:03.004Z,1.83
2023-04-25T06:32:10.749Z,2.00
2023-04-25T06:34:17.514Z,2.00
2023-04-25T06:36:26.128Z,2.05
2023-04-25T06:38:31.164Z,2.03
2023-04-25T06:40:36.571Z,1.80
2023-04-25T06:42:46.017Z,1.92
2023-04-25T06:44:52.367Z,2.22
2023-04-25T06:46:57.623Z,2.28
2023-04-25T06:51:52.115Z,1.90
2023-04-25T06:54:01.873Z,2.63
2023-04-25T06:56:15.465Z,2.72
2023-04-25T06:58:27.909Z,2.35
2023-04-25T07:00:39.416Z,2.38
2023-04-25T07:02:54.782Z,2.00
2023-04-25T07:05:05.408Z,2.13
2023-04-25T07:07:13.892Z,2.70
2023-04-25T07:09:26.688Z,2.10
2023-04-25T07:11:31.789Z,2.33
2023-04-25T07:13:40.997Z,2.60
2023-04-25T07:15:52.407Z,2.75
2023-04-25T07:18:10.578Z,2.30
2023-04-25T07:20:29.284Z,2.83
2023-04-25T07:22:37.182Z,3.67
2023-04-25T07:24:42.805Z,2.08
2023-04-25T07:26:48.160Z,2.28
2023-04-25T07:28:53.199Z,2.28
2023-04-25T07:30:59.391Z,2.42
2023-04-25T07:33:04.925Z,2.65
2023-04-25T07:35:11.261Z,2.45
2023-04-25T07:37:26.612Z,2.20
2023-04-25T07:39:34.942Z,2.47
2023-04-25T07:41:49.751Z,1.88
2023-04-25T07:43:54.871Z,2.60
2023-04-25T07:46:00.645Z,1.58
2023-04-25T07:48:08.232Z,2.33
2023-04-25T07:50:22.250Z,1.77
2023-04-25T07:52:29.919Z,1.92
2023-04-25T07:54:35.278Z,1.90
2023-04-25T07:56:52.190Z,2.92
2023-04-25T07:59:03.798Z,2.38
2023-04-25T08:01:09.076Z,1.40
2023-04-25T08:03:14.160Z,1.90
2023-04-25T08:05:22.984Z,2.20
2023-04-25T08:07:32.308Z,2.50
2023-04-25T08:09:38.803Z,1.80
2023-04-25T08:11:46.770Z,1.88
2023-04-25T08:13:56.722Z,2.47
2023-04-25T08:16:20.636Z,2.28
2023-04-25T08:18:33.261Z,3.00
2023-04-25T08:20:50.048Z,1.80
2023-04-25T08:23:01.686Z,1.88
2023-04-25T08:25:15.217Z,1.88
2023-04-25T08:27:25.694Z,2.22
2023-04-25T08:29:50.998Z,2.38
2023-04-25T08:31:59.989Z,2.00
2023-04-25T08:34:09.398Z,2.25
2023-04-25T08:36:52.080Z,2.05
2023-04-25T08:39:38.651Z,2.05
2023-04-25T08:42:07.604Z,2.13
2023-04-25T08:44:28.153Z,1.60
2023-04-25T08:46:39.962Z,2.67
2023-04-25T08:48:48.503Z,1.90
2023-04-25T08:50:55.432Z,2.47
2023-04-25T08:53:08.800Z,1.80
2023-04-25T08:55:20.264Z,2.10
2023-04-25T08:57:26.714Z,1.90
2023-04-25T08:59:32.544Z,2.47
2023-04-25T09:01:38.825Z,1.80
2023-04-25T09:03:52.296Z,2.65
2023-04-25T09:05:59.436Z,2.03
2023-04-25T09:08:04.871Z,1.83
2023-04-25T09:10:10.538Z,2.22
2023-04-25T09:12:18.633Z,1.75
2023-04-25T09:14:31.564Z,2.08
2023-04-25T09:16:38.247Z,1.50
2023-04-25T09:18:48.342Z,1.55
2023-04-25T09:21:00.911Z,1.58
2023-04-25T09:23:08.494Z,1.60
2023-04-25T09:25:15.817Z,1.50
2023-04-25T09:27:28.275Z,1.70
2023-04-25T09:29:34.470Z,1.40
2023-04-25T09:31:40.186Z,2.35
2023-04-25T09:33:45.456Z,2.20
2023-04-25T09:35:56.652Z,1.58
2023-04-25T09:38:01.639Z,1.73
2023-04-25T09:40:11.625Z,2.00
2023-04-25T09:42:20.369Z,1.77
2023-04-25T09:44:30.255Z,1.50
2023-04-25T09:46:48.352Z,1.63
2023-04-25T09:48:55.232Z,1.77
2023-04-25T09:51:10.664Z,1.60
2023-04-25T09:53:16.267Z,2.15
2023-04-25T09:55:24.667Z,1.63
2023-04-25T09:57:29.900Z,2.17
2023-04-25T09:59:42.839Z,1.90
2023-04-25T10:01:48.326Z,1.77
2023-04-25T10:03:56.214Z,1.73
2023-04-25T10:06:04.374Z,1.65
2023-04-25T10:08:11.335Z,2.42
2023-04-25T10:10:20.372Z,2.40
2023-04-25T10:12:25.995Z,1.63
2023-04-25T10:14:31.054Z,1.92
2023-04-25T10:16:40.091Z,1.98
2023-04-25T10:18:45.220Z,1.80
2023-04-25T10:20:51.191Z,2.05
2023-04-25T10:22:59.710Z,1.58
2023-04-25T10:25:05.648Z,2.10
2023-04-25T10:27:11.394Z,2.00
2023-04-25T10:29:27.190Z,1.70
2023-04-25T10:31:34.244Z,1.83
2023-04-25T10:33:44.434Z,1.70
2023-04-25T10:35:49.475Z,1.67
2023-04-25T10:38:08.781Z,1.70
2023-04-25T10:40:14.633Z,2.13
2023-04-25T10:42:19.626Z,1.63
2023-04-25T10:44:24.715Z,1.90
2023-04-25T10:46:43.725Z,2.00
2023-04-25T10:48:55.468Z,2.00
2023-04-25T10:51:13.502Z,3.08
2023-04-25T10:53:23.445Z,1.90
2023-04-25T10:55:58.974Z,2.00
2023-04-25T10:58:04.830Z,1.67
2023-04-25T11:00:19.953Z,1.50
2023-04-25T11:02:33.881Z,1.48
2023-04-25T11:04:43.255Z,1.40
2023-04-25T11:07:06.427Z,1.75
2023-04-25T11:09:15.933Z,2.28
2023-04-25T11:11:24.115Z,3.33
2023-04-25T11:13:33.772Z,1.88
2023-04-25T11:15:38.715Z,1.55
2023-04-25T11:17:49.640Z,1.60
2023-04-25T11:19:58.098Z,1.58
2023-04-25T11:22:04.804Z,1.83
2023-04-25T11:24:10.418Z,1.40
2023-04-25T11:26:18.525Z,1.60
2023-04-25T11:28:26.232Z,1.50
2023-04-25T11:30:33.319Z,1.73
2023-04-25T11:32:38.903Z,1.75
2023-04-25T11:34:48.686Z,2.70
2023-04-25T11:36:56.778Z,1.50
2023-04-25T11:39:01.994Z,1.80
2023-04-25T11:41:07.120Z,1.90
2023-04-25T11:43:13.785Z,1.33
2023-04-25T11:45:22.195Z,1.77
2023-04-25T11:47:32.637Z,1.60
2023-04-25T11:49:43.198Z,1.80
2023-04-25T11:51:49.712Z,1.65
2023-04-25T11:53:57.267Z,2.03
2023-04-25T11:56:02.344Z,1.60
2023-04-25T11:58:09.896Z,2.00
2023-04-25T12:00:21.483Z,1.83
2023-04-25T12:02:29.891Z,1.75
2023-04-25T12:04:36.658Z,1.52
2023-04-25T12:06:44.142Z,1.80
2023-04-25T12:09:11.985Z,1.80
2023-04-25T12:11:24.886Z,1.67
2023-04-25T12:13:31.235Z,1.50
2023-04-25T12:15:38.597Z,1.73
2023-04-25T12:17:43.803Z,1.52
2023-04-25T12:19:54.832Z,1.77
2023-04-25T12:21:59.906Z,2.40
2023-04-25T12:24:19.335Z,1.75
2023-04-25T12:26:24.566Z,1.60
2023-04-25T12:28:33.126Z,1.75
2023-04-25T12:30:56.502Z,1.88
2023-04-25T12:35:09.720Z,1.70
2023-04-25T12:37:15.356Z,1.63
2023-04-25T12:39:26.386Z,1.80
2023-04-25T12:41:31.239Z,1.80
2023-04-25T12:43:36.808Z,1.65
2023-04-25T12:45:41.942Z,1.23
2023-04-25T12:47:46.988Z,1.70
2023-04-25T12:49:55.206Z,2.13
2023-04-25T12:52:00.222Z,1.80
2023-04-25T12:54:05.520Z,2.80
2023-04-25T12:56:13.533Z,1.67
2023-04-25T12:58:20.532Z,1.83
2023-04-25T13:00:25.987Z,1.40
2023-04-25T13:02:31.169Z,2.25
2023-04-25T13:04:38.198Z,1.40
2023-04-25T13:06:43.463Z,1.70
2023-04-25T13:08:48.578Z,2.00
2023-04-25T13:10:53.403Z,2.10
2023-04-25T13:13:02.298Z,1.45
2023-04-25T13:15:08.729Z,1.63
2023-04-25T13:17:13.632Z,2.03
2023-04-25T13:19:21.321Z,1.45
2023-04-25T13:21:26.817Z,1.60
2023-04-25T13:23:33.310Z,1.60
2023-04-25T13:25:38.598Z,2.42
2023-04-25T13:27:45.426Z,1.73
2023-04-25T13:29:52.926Z,1.80
2023-04-25T13:31:57.868Z,1.85
2023-04-25T13:34:02.789Z,2.10
2023-04-25T13:36:08.077Z,1.60
2023-04-25T13:38:13.749Z,1.95
2023-04-25T13:40:22.878Z,1.85
2023-04-25T13:42:29.760Z,2.17
2023-04-25T13:44:34.672Z,1.77
2023-04-25T13:46:47.052Z,2.10
2023-04-25T13:48:57.719Z,2.47
2023-04-25T13:51:05.234Z,1.98
2023-04-25T13:53:10.079Z,2.28
2023-04-25T13:55:15.190Z,1.88
2023-04-25T13:57:20.415Z,1.95
2023-04-25T13:59:27.982Z,1.80
2023-04-25T14:01:35.561Z,1.88
2023-04-25T14:03:43.794Z,1.90
2023-04-25T14:05:50.193Z,2.05
2023-04-25T14:07:55.231Z,1.52
2023-04-25T14:10:00.853Z,1.98
2023-04-25T14:12:06.067Z,1.40
2023-04-25T14:14:11.105Z,2.00
2023-04-25T14:16:16.283Z,1.48
2023-04-25T14:18:22.125Z,1.88
2023-04-25T14:20:29.609Z,1.90
2023-04-25T14:22:34.480Z,1.40
2023-04-25T14:24:40.356Z,1.88
2023-04-25T14:26:45.617Z,2.03
2023-04-25T14:28:50.390Z,1.95
2023-04-25T14:30:55.297Z,3.67
2023-04-25T14:33:00.238Z,1.88
2023-04-25T14:35:05.372Z,1.92
2023-04-25T14:39:32.129Z,1.83
2023-04-25T14:41:37.116Z,1.50
2023-04-25T14:43:43.785Z,1.50
2023-04-25T14:45:51.409Z,1.60
2023-04-25T14:47:57.286Z,1.95
2023-04-25T14:50:03.120Z,1.48
2023-04-25T14:52:08.763Z,1.20
2023-04-25T14:54:18.085Z,1.30
2023-04-25T14:56:23.110Z,1.70
2023-04-25T14:58:28.312Z,2.20
2023-04-25T15:00:34.308Z,2.03
2023-04-25T15:02:40.378Z,2.03
2023-04-25T15:04:45.725Z,1.63
2023-04-25T15:06:50.702Z,2.13
2023-04-25T15:08:55.554Z,2.33
2023-04-25T15:11:03.989Z,2.30
2023-04-25T15:13:09.844Z,2.25
2023-04-25T15:15:22.615Z,2.10
2023-04-25T15:17:32.294Z,1.95
2023-04-25T15:19:38.649Z,2.60
2023-04-25T15:21:43.963Z,2.30
2023-04-25T15:23:49.641Z,2.10
2023-04-25T15:25:55.680Z,2.80
2023-04-25T15:28:04.195Z,2.10
2023-04-25T15:30:16.408Z,1.80
2023-04-25T15:32:24.553Z,1.98
2023-04-25T15:34:29.504Z,2.30
2023-04-25T15:36:34.485Z,2.22
2023-04-25T15:38:39.635Z,2.20
2023-04-25T15:40:44.809Z,2.03
2023-04-25T15:42:52.574Z,2.03
2023-04-25T15:45:00.202Z,1.95
2023-04-25T15:47:05.148Z,2.15
2023-04-25T15:49:10.215Z,2.22
2023-04-25T15:51:15.193Z,1.77
2023-04-25T15:53:20.184Z,2.88
2023-04-25T15:55:28.880Z,2.45
2023-04-25T15:57:34.022Z,1.77
2023-04-25T15:59:38.806Z,1.88
2023-04-25T16:01:46.467Z,2.35
2023-04-25T16:03:54.923Z,1.75
2023-04-25T16:06:00.058Z,1.80
2023-04-25T16:08:05.698Z,1.90
2023-04-25T16:10:13.744Z,2.30
2023-04-25T16:12:21.794Z,1.98
2023-04-25T16:14:26.931Z,2.67
2023-04-25T16:16:34.908Z,2.15
2023-04-25T16:18:43.624Z,2.17
2023-04-25T16:20:49.667Z,2.00
2023-04-25T16:22:54.560Z,1.83
2023-04-25T16:24:59.689Z,2.90
2023-04-25T16:27:04.752Z,2.78
2023-04-25T16:29:10.580Z,2.50
2023-04-25T16:31:16.860Z,2.10
2023-04-25T16:33:23.418Z,2.88
2023-04-25T16:35:32.753Z,1.83
2023-04-25T16:37:38.169Z,2.00
2023-04-25T16:39:43.598Z,1.85
2023-04-25T16:41:49.469Z,1.80
2023-04-25T16:43:54.804Z,2.70
2023-04-25T16:45:59.860Z,2.38
2023-04-25T16:48:04.829Z,1.90
2023-04-25T16:50:13.634Z,2.17
2023-04-25T16:52:24.058Z,2.60
2023-04-25T16:54:30.095Z,3.33
2023-04-25T16:56:35.481Z,2.15
2023-04-25T16:58:44.326Z,2.38
2023-04-25T17:00:50.168Z,2.70
2023-04-25T17:02:55.562Z,2.22
2023-04-25T17:05:02.182Z,2.72
2023-04-25T17:07:07.475Z,2.58
2023-04-25T17:09:19.026Z,2.85
2023-04-25T17:11:24.406Z,2.45
2023-04-25T17:13:31.849Z,2.20
2023-04-25T17:15:38.079Z,2.20
2023-04-25T17:17:43.855Z,2.03
2023-04-25T17:19:50.393Z,2.30
2023-04-25T17:21:55.440Z,2.28
2023-04-25T17:24:01.136Z,2.60
2023-04-25T17:26:09.942Z,2.17
2023-04-25T17:28:15.843Z,2.33
2023-04-25T17:30:23.943Z,2.33
2023-04-25T17:32:30.603Z,2.95
2023-04-25T17:34:37.887Z,2.58
2023-04-25T17:36:44.035Z,2.50
2023-04-25T17:38:52.918Z,2.85
2023-04-25T17:40:58.836Z,2.53
2023-04-25T17:43:06.601Z,3.13
2023-04-25T17:45:13.595Z,2.58
2023-04-25T17:47:19.494Z,2.53
2023-04-25T17:49:24.577Z,2.55
2023-04-25T17:51:29.589Z,3.40
2023-04-25T17:53:34.411Z,3.05
2023-04-25T17:55:41.948Z,2.97
2023-04-25T17:57:49.285Z,3.10
2023-04-25T17:59:59.134Z,2.67
2023-04-25T18:02:04.248Z,2.53
2023-04-25T18:04:09.936Z,2.20
2023-04-25T18:06:16.034Z,2.63
2023-04-25T18:08:22.460Z,2.85
2023-04-25T18:10:27.439Z,2.30
2023-04-25T18:12:33.580Z,2.95
2023-04-25T18:14:38.583Z,2.55
2023-04-25T18:16:49.848Z,2.42
2023-04-25T18:18:55.844Z,3.05
2023-04-25T18:21:01.385Z,2.50
2023-04-25T18:23:06.948Z,3.08
2023-04-25T18:25:14.495Z,3.63
2023-04-25T18:27:26.809Z,3.75
2023-04-25T18:29:33.913Z,2.70
2023-04-25T18:31:39.800Z,2.45
2023-04-25T18:33:49.477Z,2.35
2023-04-25T18:35:59.420Z,2.42
2023-04-25T18:38:05.117Z,2.42
2023-04-25T18:40:14.247Z,2.33
2023-04-25T18:42:19.773Z,2.88
2023-04-25T18:44:24.584Z,2.83
2023-04-25T18:46:29.996Z,3.13
2023-04-25T18:48:35.245Z,3.50
2023-04-25T18:50:44.995Z,2.47
2023-04-25T18:52:50.002Z,3.13
2023-04-25T18:54:55.472Z,2.78
2023-04-25T18:57:01.392Z,2.75
2023-04-25T18:59:06.964Z,3.35
2023-04-25T19:01:11.907Z,2.83
2023-04-25T19:03:17.607Z,2.60
2023-04-25T19:05:23.685Z,3.47
2023-04-25T19:07:32.592Z,3.33
2023-04-25T19:09:37.936Z,3.00
2023-04-25T19:11:43.196Z,3.50
2023-04-25T19:13:51.209Z,3.17
2023-04-25T19:15:57.923Z,2.75
2023-04-25T19:18:03.065Z,2.75
2023-04-25T19:20:09.921Z,3.20
2023-04-25T19:22:14.858Z,3.45
2023-04-25T19:24:22.882Z,3.55
2023-04-25T19:26:27.945Z,2.90
2023-04-25T19:28:33.063Z,3.30
2023-04-25T19:30:38.184Z,3.63
2023-04-25T19:32:43.161Z,4.47
2023-04-25T19:34:48.594Z,3.60
2023-04-25T19:36:55.908Z,3.50
2023-04-25T19:39:03.196Z,4.13
2023-04-25T19:41:10.705Z,5.03
2023-04-25T19:43:16.838Z,4.38
2023-04-25T19:45:24.635Z,4.07
2023-04-25T19:47:30.155Z,4.93
2023-04-25T19:49:35.172Z,4.30
2023-04-25T19:51:43.240Z,3.83
2023-04-25T19:53:48.986Z,5.70
2023-04-25T19:55:54.663Z,4.18
2023-04-25T19:58:03.553Z,4.38
2023-04-25T20:00:12.271Z,3.55
2023-04-25T20:02:21.749Z,3.38
2023-04-25T20:04:26.760Z,4.03
2023-04-25T20:06:32.969Z,3.90
2023-04-25T20:08:38.684Z,2.97
2023-04-25T20:10:43.656Z,3.53
2023-04-25T20:12:49.320Z,3.10
2023-04-25T20:14:58.709Z,3.55
2023-04-25T20:17:04.744Z,3.63
2023-04-25T20:19:09.709Z,3.88
2023-04-25T20:21:14.814Z,3.75
2023-04-25T20:23:20.047Z,4.00
2023-04-25T20:25:25.502Z,4.35
2023-04-25T20:27:31.013Z,3.45
2023-04-25T20:29:36.650Z,3.33
2023-04-25T20:31:44.347Z,3.50
2023-04-25T20:33:53.603Z,3.90
2023-04-25T20:35:58.755Z,3.58
2023-04-25T20:38:03.671Z,3.67
2023-04-25T20:40:12.093Z,3.97
2023-04-25T20:42:16.945Z,3.90
2023-04-25T20:44:23.928Z,4.10
2023-04-25T20:46:31.909Z,3.90
2023-04-25T20:48:39.278Z,3.70
2023-04-25T20:50:44.276Z,3.72
2023-04-25T20:52:49.895Z,4.57
2023-04-25T20:54:55.222Z,4.22
2023-04-25T20:57:00.505Z,4.15
2023-04-25T20:59:07.919Z,4.82
2023-04-25T21:01:12.888Z,4.25
2023-04-25T21:03:21.429Z,3.80
2023-04-25T21:05:29.190Z,3.60
2023-04-25T21:07:34.068Z,3.47
2023-04-25T21:09:38.914Z,4.55
2023-04-25T21:11:46.025Z,4.28
2023-04-25T21:13:52.744Z,3.47
2023-04-25T21:15:57.687Z,5.03
2023-04-25T21:18:02.631Z,4.18
2023-04-25T21:20:11.023Z,3.72
2023-04-25T21:22:18.751Z,4.10
2023-04-25T21:24:27.531Z,3.40
2023-04-25T21:26:32.289Z,3.63
2023-04-25T21:28:37.159Z,3.13
2023-04-25T21:30:42.698Z,3.78
2023-04-25T21:32:51.973Z,4.00
2023-04-25T21:34:57.076Z,3.35
2023-04-25T21:37:01.995Z,3.72
2023-04-25T21:39:11.018Z,2.95
2023-04-25T21:41:15.937Z,3.20
2023-04-25T21:43:24.652Z,2.60
2023-04-25T21:45:29.788Z,2.63
2023-04-25T21:48:00.285Z,2.55
2023-04-25T21:50:15.482Z,2.40
2023-04-25T21:52:21.766Z,2.78
2023-04-25T21:54:37.100Z,2.50
2023-04-25T21:56:42.913Z,2.70
2023-04-25T21:58:48.914Z,3.03
2023-04-25T22:00:53.952Z,2.78
2023-04-25T22:03:00.450Z,2.67
2023-04-25T22:05:05.608Z,2.60
2023-04-25T22:07:10.466Z,2.85
2023-04-25T22:09:16.549Z,2.90
2023-04-25T22:11:26.884Z,3.10
2023-04-25T22:13:33.705Z,3.10
2023-04-25T22:15:42.198Z,3.00
2023-04-25T22:20:14.410Z,3.20
2023-04-25T22:22:28.868Z,3.13
2023-04-25T22:24:38.650Z,3.47
2023-04-25T22:27:01.930Z,3.28
2023-04-25T22:29:20.920Z,3.38
2023-04-25T22:31:31.257Z,2.92
2023-04-25T22:33:38.848Z,2.75
2023-04-25T22:35:47.691Z,2.97
2023-04-25T22:37:57.151Z,2.90
2023-04-25T22:40:10.584Z,3.13
2023-04-25T22:42:31.627Z,2.88
2023-04-25T22:44:42.498Z,2.80
2023-04-25T22:46:58.922Z,3.50
2023-04-25T22:49:11.414Z,3.40
2023-04-25T22:51:33.329Z,3.10
2023-04-25T22:53:53.511Z,3.92
2023-04-25T22:56:03.876Z,3.35
2023-04-25T22:58:25.401Z,3.55
2023-04-25T23:00:36.683Z,3.03
2023-04-25T23:02:50.411Z,3.25
2023-04-25T23:05:00.394Z,2.85
2023-04-25T23:07:13.868Z,3.33
2023-04-25T23:09:20.761Z,3.05
2023-04-25T23:11:27.139Z,2.35
2023-04-25T23:13:41.602Z,2.38
2023-04-25T23:15:58.402Z,2.78
2023-04-25T23:18:09.477Z,3.00
2023-04-25T23:20:22.671Z,2.80
2023-04-25T23:24:43.900Z,2.60
2023-04-25T23:26:59.748Z,2.58
2023-04-25T23:29:12.754Z,2.38
2023-04-25T23:31:32.547Z,2.22
2023-04-25T23:33:41.489Z,2.40
2023-04-25T23:35:54.096Z,2.38
2023-04-25T23:38:06.608Z,2.53
2023-04-25T23:40:20.271Z,2.70
2023-04-25T23:42:34.584Z,3.28
2023-04-25T23:44:55.426Z,3.08
2023-04-25T23:47:02.306Z,2.85
2023-04-25T23:49:12.888Z,2.85
2023-04-25T23:51:21.727Z,2.88
2023-04-25T23:53:29.552Z,2.85
2023-04-25T23:55:39.385Z,3.17
2023-04-25T23:57:49.208Z,3.05
